sensor_id;sensor_type;location;lat;lon;timestamp;P1;durP1;ratioP1;P2;durP2;ratioP2
27539;SDS011;15906;52.046;4.724;2023-02-05T00:01:19;33.25;;;18.73;;
27539;SDS011;15906;52.046;4.724;2023-02-05T00:03:45;30.80;;;18.88;;
27539;SDS011;15906;52.046;4.724;2023-02-05T00:06:10;33.78;;;19.40;;
27539;SDS011;15906;52.046;4.724;2023-02-05T00:08:36;36.38;;;20.63;;
27539;SDS011;15906;52.046;4.724;2023-02-05T00:11:02;40.03;;;19.83;;
27539;SDS011;15906;52.046;4.724;2023-02-05T00:13:33;35.40;;;18.85;;
27539;SDS011;15906;52.046;4.724;2023-02-05T00:16:10;29.10;;;17.85;;
27539;SDS011;15906;52.046;4.724;2023-02-05T00:18:40;32.45;;;18.05;;
27539;SDS011;15906;52.046;4.724;2023-02-05T00:21:06;30.63;;;17.92;;
27539;SDS011;15906;52.046;4.724;2023-02-05T00:23:33;31.55;;;18.10;;
27539;SDS011;15906;52.046;4.724;2023-02-05T00:25:59;34.70;;;18.35;;
27539;SDS011;15906;52.046;4.724;2023-02-05T00:28:25;31.50;;;17.65;;
27539;SDS011;15906;52.046;4.724;2023-02-05T00:30:50;33.10;;;16.63;;
27539;SDS011;15906;52.046;4.724;2023-02-05T00:33:16;28.60;;;17.13;;
27539;SDS011;15906;52.046;4.724;2023-02-05T00:35:42;31.17;;;18.20;;
27539;SDS011;15906;52.046;4.724;2023-02-05T00:38:08;28.75;;;16.40;;
27539;SDS011;15906;52.046;4.724;2023-02-05T00:40:33;30.13;;;16.98;;
27539;SDS011;15906;52.046;4.724;2023-02-05T00:42:59;33.22;;;16.75;;
27539;SDS011;15906;52.046;4.724;2023-02-05T00:45:24;31.98;;;16.30;;
27539;SDS011;15906;52.046;4.724;2023-02-05T00:47:50;25.73;;;14.75;;
27539;SDS011;15906;52.046;4.724;2023-02-05T00:50:15;26.50;;;16.02;;
27539;SDS011;15906;52.046;4.724;2023-02-05T00:52:41;27.27;;;15.55;;
27539;SDS011;15906;52.046;4.724;2023-02-05T00:55:07;22.25;;;14.10;;
27539;SDS011;15906;52.046;4.724;2023-02-05T00:57:32;24.90;;;13.18;;
27539;SDS011;15906;52.046;4.724;2023-02-05T00:59:58;26.88;;;12.60;;
27539;SDS011;15906;52.046;4.724;2023-02-05T01:02:23;24.38;;;12.85;;
27539;SDS011;15906;52.046;4.724;2023-02-05T01:04:50;23.60;;;12.98;;
27539;SDS011;15906;52.046;4.724;2023-02-05T01:07:16;23.38;;;12.25;;
27539;SDS011;15906;52.046;4.724;2023-02-05T01:09:43;22.13;;;12.18;;
27539;SDS011;15906;52.046;4.724;2023-02-05T01:12:09;24.60;;;12.27;;
27539;SDS011;15906;52.046;4.724;2023-02-05T01:14:34;24.55;;;10.70;;
27539;SDS011;15906;52.046;4.724;2023-02-05T01:17:00;19.88;;;11.00;;
27539;SDS011;15906;52.046;4.724;2023-02-05T01:19:26;23.42;;;11.10;;
27539;SDS011;15906;52.046;4.724;2023-02-05T01:21:51;19.40;;;10.38;;
27539;SDS011;15906;52.046;4.724;2023-02-05T01:24:17;18.27;;;9.93;;
27539;SDS011;15906;52.046;4.724;2023-02-05T01:26:42;17.27;;;9.30;;
27539;SDS011;15906;52.046;4.724;2023-02-05T01:29:08;20.23;;;10.13;;
27539;SDS011;15906;52.046;4.724;2023-02-05T01:31:33;15.95;;;9.32;;
27539;SDS011;15906;52.046;4.724;2023-02-05T01:33:59;18.55;;;8.88;;
27539;SDS011;15906;52.046;4.724;2023-02-05T01:36:24;18.85;;;9.05;;
27539;SDS011;15906;52.046;4.724;2023-02-05T01:38:50;21.10;;;8.27;;
27539;SDS011;15906;52.046;4.724;2023-02-05T01:41:18;17.52;;;8.15;;
27539;SDS011;15906;52.046;4.724;2023-02-05T01:44:03;13.15;;;7.50;;
27539;SDS011;15906;52.046;4.724;2023-02-05T01:46:30;14.80;;;7.35;;
27539;SDS011;15906;52.046;4.724;2023-02-05T01:48:57;12.40;;;6.70;;
27539;SDS011;15906;52.046;4.724;2023-02-05T01:51:23;12.20;;;6.15;;
27539;SDS011;15906;52.046;4.724;2023-02-05T01:53:52;7.30;;;5.05;;
27539;SDS011;15906;52.046;4.724;2023-02-05T01:58:57;8.98;;;4.18;;
27539;SDS011;15906;52.046;4.724;2023-02-05T02:01:27;9.70;;;4.35;;
27539;SDS011;15906;52.046;4.724;2023-02-05T02:03:53;8.77;;;4.00;;
27539;SDS011;15906;52.046;4.724;2023-02-05T02:06:21;10.13;;;4.00;;
27539;SDS011;15906;52.046;4.724;2023-02-05T02:08:47;8.50;;;3.80;;
27539;SDS011;15906;52.046;4.724;2023-02-05T02:11:13;8.85;;;3.55;;
27539;SDS011;15906;52.046;4.724;2023-02-05T02:13:41;7.13;;;3.63;;
27539;SDS011;15906;52.046;4.724;2023-02-05T02:16:09;6.13;;;3.40;;
27539;SDS011;15906;52.046;4.724;2023-02-05T02:18:36;9.50;;;3.42;;
27539;SDS011;15906;52.046;4.724;2023-02-05T02:28:51;4.88;;;2.10;;
27539;SDS011;15906;52.046;4.724;2023-02-05T02:40:08;6.35;;;1.90;;
27539;SDS011;15906;52.046;4.724;2023-02-05T02:42:40;5.22;;;1.70;;
27539;SDS011;15906;52.046;4.724;2023-02-05T02:45:11;4.60;;;1.90;;
27539;SDS011;15906;52.046;4.724;2023-02-05T02:47:48;3.72;;;1.85;;
27539;SDS011;15906;52.046;4.724;2023-02-05T02:53:00;4.35;;;1.92;;
27539;SDS011;15906;52.046;4.724;2023-02-05T02:55:34;5.78;;;2.22;;
27539;SDS011;15906;52.046;4.724;2023-02-05T02:58:04;7.10;;;2.17;;
27539;SDS011;15906;52.046;4.724;2023-02-05T03:00:32;10.05;;;2.30;;
27539;SDS011;15906;52.046;4.724;2023-02-05T03:03:00;5.10;;;2.05;;
27539;SDS011;15906;52.046;4.724;2023-02-05T03:05:30;7.20;;;2.30;;
27539;SDS011;15906;52.046;4.724;2023-02-05T03:07:58;10.27;;;2.05;;
27539;SDS011;15906;52.046;4.724;2023-02-05T03:13:10;5.30;;;2.08;;
27539;SDS011;15906;52.046;4.724;2023-02-05T03:15:37;7.80;;;2.30;;
27539;SDS011;15906;52.046;4.724;2023-02-05T03:18:05;5.97;;;2.10;;
27539;SDS011;15906;52.046;4.724;2023-02-05T03:20:32;7.18;;;2.17;;
27539;SDS011;15906;52.046;4.724;2023-02-05T03:23:02;5.07;;;2.00;;
27539;SDS011;15906;52.046;4.724;2023-02-05T03:25:29;5.97;;;2.10;;
27539;SDS011;15906;52.046;4.724;2023-02-05T03:27:54;7.70;;;2.15;;
27539;SDS011;15906;52.046;4.724;2023-02-05T03:30:21;9.50;;;2.50;;
27539;SDS011;15906;52.046;4.724;2023-02-05T03:43:47;14.23;;;5.28;;
27539;SDS011;15906;52.046;4.724;2023-02-05T03:49:22;11.52;;;5.80;;
27539;SDS011;15906;52.046;4.724;2023-02-05T03:52:06;16.35;;;5.72;;
27539;SDS011;15906;52.046;4.724;2023-02-05T03:54:35;12.02;;;6.72;;
27539;SDS011;15906;52.046;4.724;2023-02-05T03:57:23;16.50;;;7.13;;
27539;SDS011;15906;52.046;4.724;2023-02-05T04:00:06;16.27;;;6.18;;
27539;SDS011;15906;52.046;4.724;2023-02-05T04:02:33;12.40;;;6.53;;
27539;SDS011;15906;52.046;4.724;2023-02-05T04:04:59;13.07;;;7.20;;
27539;SDS011;15906;52.046;4.724;2023-02-05T04:07:25;16.15;;;6.82;;
27539;SDS011;15906;52.046;4.724;2023-02-05T04:09:50;16.20;;;7.88;;
27539;SDS011;15906;52.046;4.724;2023-02-05T04:12:16;16.55;;;6.80;;
27539;SDS011;15906;52.046;4.724;2023-02-05T04:14:41;12.73;;;7.22;;
27539;SDS011;15906;52.046;4.724;2023-02-05T04:17:08;18.38;;;7.35;;
27539;SDS011;15906;52.046;4.724;2023-02-05T04:19:36;12.10;;;8.23;;
27539;SDS011;15906;52.046;4.724;2023-02-05T04:22:01;16.35;;;7.95;;
27539;SDS011;15906;52.046;4.724;2023-02-05T04:24:27;13.52;;;7.50;;
27539;SDS011;15906;52.046;4.724;2023-02-05T04:26:53;13.35;;;7.95;;
27539;SDS011;15906;52.046;4.724;2023-02-05T04:29:18;10.07;;;7.00;;
27539;SDS011;15906;52.046;4.724;2023-02-05T04:31:44;11.77;;;7.03;;
27539;SDS011;15906;52.046;4.724;2023-02-05T04:34:10;7.00;;;5.00;;
27539;SDS011;15906;52.046;4.724;2023-02-05T04:36:35;7.72;;;4.20;;
27539;SDS011;15906;52.046;4.724;2023-02-05T04:39:01;12.38;;;4.60;;
27539;SDS011;15906;52.046;4.724;2023-02-05T04:41:27;7.13;;;4.18;;
27539;SDS011;15906;52.046;4.724;2023-02-05T04:43:52;8.98;;;4.28;;
27539;SDS011;15906;52.046;4.724;2023-02-05T04:46:18;5.78;;;2.80;;
27539;SDS011;15906;52.046;4.724;2023-02-05T04:48:43;7.32;;;2.40;;
27539;SDS011;15906;52.046;4.724;2023-02-05T04:51:10;6.55;;;2.05;;
27539;SDS011;15906;52.046;4.724;2023-02-05T04:53:37;5.50;;;2.13;;
27539;SDS011;15906;52.046;4.724;2023-02-05T04:56:13;9.80;;;2.00;;
27539;SDS011;15906;52.046;4.724;2023-02-05T04:58:41;13.43;;;1.90;;
27539;SDS011;15906;52.046;4.724;2023-02-05T05:01:14;10.70;;;1.60;;
27539;SDS011;15906;52.046;4.724;2023-02-05T05:03:41;11.07;;;2.33;;
27539;SDS011;15906;52.046;4.724;2023-02-05T05:06:07;13.50;;;2.50;;
27539;SDS011;15906;52.046;4.724;2023-02-05T05:08:34;8.82;;;2.42;;
27539;SDS011;15906;52.046;4.724;2023-02-05T05:11:04;21.20;;;2.55;;
27539;SDS011;15906;52.046;4.724;2023-02-05T05:13:34;12.00;;;1.88;;
27539;SDS011;15906;52.046;4.724;2023-02-05T05:16:01;10.15;;;2.55;;
27539;SDS011;15906;52.046;4.724;2023-02-05T05:18:27;12.32;;;1.52;;
27539;SDS011;15906;52.046;4.724;2023-02-05T05:20:53;16.58;;;1.75;;
27539;SDS011;15906;52.046;4.724;2023-02-05T05:23:18;14.50;;;1.80;;
27539;SDS011;15906;52.046;4.724;2023-02-05T05:25:45;17.17;;;2.78;;
27539;SDS011;15906;52.046;4.724;2023-02-05T05:28:11;17.50;;;2.33;;
27539;SDS011;15906;52.046;4.724;2023-02-05T05:30:38;17.58;;;2.50;;
27539;SDS011;15906;52.046;4.724;2023-02-05T05:33:04;18.30;;;2.83;;
27539;SDS011;15906;52.046;4.724;2023-02-05T05:35:30;14.05;;;2.35;;
27539;SDS011;15906;52.046;4.724;2023-02-05T05:37:56;12.38;;;1.80;;
27539;SDS011;15906;52.046;4.724;2023-02-05T05:40:22;8.45;;;1.75;;
27539;SDS011;15906;52.046;4.724;2023-02-05T05:43:10;11.15;;;1.80;;
27539;SDS011;15906;52.046;4.724;2023-02-05T05:45:55;11.32;;;1.40;;
27539;SDS011;15906;52.046;4.724;2023-02-05T05:48:21;6.07;;;1.27;;
27539;SDS011;15906;52.046;4.724;2023-02-05T05:50:46;14.10;;;2.30;;
27539;SDS011;15906;52.046;4.724;2023-02-05T05:53:12;10.57;;;1.70;;
27539;SDS011;15906;52.046;4.724;2023-02-05T05:55:38;16.50;;;1.52;;
27539;SDS011;15906;52.046;4.724;2023-02-05T05:58:03;11.45;;;1.63;;
27539;SDS011;15906;52.046;4.724;2023-02-05T06:00:29;11.13;;;1.93;;
27539;SDS011;15906;52.046;4.724;2023-02-05T06:02:55;9.43;;;1.53;;
27539;SDS011;15906;52.046;4.724;2023-02-05T06:05:21;7.95;;;1.70;;
27539;SDS011;15906;52.046;4.724;2023-02-05T06:07:46;13.77;;;1.70;;
27539;SDS011;15906;52.046;4.724;2023-02-05T06:10:12;9.77;;;1.50;;
27539;SDS011;15906;52.046;4.724;2023-02-05T06:12:37;13.63;;;1.60;;
27539;SDS011;15906;52.046;4.724;2023-02-05T06:15:03;15.85;;;1.40;;
27539;SDS011;15906;52.046;4.724;2023-02-05T06:17:29;12.63;;;2.00;;
27539;SDS011;15906;52.046;4.724;2023-02-05T06:19:54;8.88;;;1.67;;
27539;SDS011;15906;52.046;4.724;2023-02-05T06:22:20;15.95;;;2.13;;
27539;SDS011;15906;52.046;4.724;2023-02-05T06:24:46;12.90;;;1.70;;
27539;SDS011;15906;52.046;4.724;2023-02-05T06:27:11;18.10;;;2.15;;
27539;SDS011;15906;52.046;4.724;2023-02-05T06:29:37;10.35;;;2.03;;
27539;SDS011;15906;52.046;4.724;2023-02-05T06:32:02;13.57;;;1.98;;
27539;SDS011;15906;52.046;4.724;2023-02-05T06:34:28;13.68;;;1.70;;
27539;SDS011;15906;52.046;4.724;2023-02-05T06:36:53;18.63;;;2.80;;
27539;SDS011;15906;52.046;4.724;2023-02-05T06:39:19;14.63;;;1.88;;
27539;SDS011;15906;52.046;4.724;2023-02-05T06:41:45;20.83;;;2.80;;
27539;SDS011;15906;52.046;4.724;2023-02-05T06:44:10;12.05;;;1.98;;
27539;SDS011;15906;52.046;4.724;2023-02-05T06:46:36;16.02;;;2.72;;
27539;SDS011;15906;52.046;4.724;2023-02-05T06:49:01;15.85;;;2.22;;
27539;SDS011;15906;52.046;4.724;2023-02-05T06:51:27;15.13;;;2.35;;
27539;SDS011;15906;52.046;4.724;2023-02-05T06:53:53;19.27;;;3.55;;
27539;SDS011;15906;52.046;4.724;2023-02-05T06:56:21;18.92;;;1.88;;
27539;SDS011;15906;52.046;4.724;2023-02-05T06:58:49;12.98;;;2.08;;
27539;SDS011;15906;52.046;4.724;2023-02-05T07:01:15;17.70;;;2.10;;
27539;SDS011;15906;52.046;4.724;2023-02-05T07:03:41;13.20;;;2.72;;
27539;SDS011;15906;52.046;4.724;2023-02-05T07:06:06;10.48;;;2.05;;
27539;SDS011;15906;52.046;4.724;2023-02-05T07:08:32;16.30;;;2.00;;
27539;SDS011;15906;52.046;4.724;2023-02-05T07:10:58;13.23;;;2.22;;
27539;SDS011;15906;52.046;4.724;2023-02-05T07:13:25;20.25;;;2.28;;
27539;SDS011;15906;52.046;4.724;2023-02-05T07:15:52;11.80;;;2.10;;
27539;SDS011;15906;52.046;4.724;2023-02-05T07:18:17;19.23;;;2.40;;
27539;SDS011;15906;52.046;4.724;2023-02-05T07:20:43;18.77;;;2.58;;
27539;SDS011;15906;52.046;4.724;2023-02-05T07:23:08;17.83;;;2.67;;
27539;SDS011;15906;52.046;4.724;2023-02-05T07:25:34;13.90;;;2.45;;
27539;SDS011;15906;52.046;4.724;2023-02-05T07:28:03;15.25;;;2.67;;
27539;SDS011;15906;52.046;4.724;2023-02-05T07:30:30;17.67;;;2.03;;
27539;SDS011;15906;52.046;4.724;2023-02-05T07:32:56;20.17;;;3.20;;
27539;SDS011;15906;52.046;4.724;2023-02-05T07:35:21;19.92;;;2.90;;
27539;SDS011;15906;52.046;4.724;2023-02-05T07:37:47;16.05;;;1.95;;
27539;SDS011;15906;52.046;4.724;2023-02-05T07:40:12;16.23;;;2.45;;
27539;SDS011;15906;52.046;4.724;2023-02-05T07:42:38;15.48;;;2.95;;
27539;SDS011;15906;52.046;4.724;2023-02-05T07:45:03;17.52;;;2.70;;
27539;SDS011;15906;52.046;4.724;2023-02-05T07:47:29;20.95;;;2.85;;
27539;SDS011;15906;52.046;4.724;2023-02-05T07:49:55;26.30;;;3.92;;
27539;SDS011;15906;52.046;4.724;2023-02-05T07:52:20;22.17;;;3.53;;
27539;SDS011;15906;52.046;4.724;2023-02-05T07:54:46;19.20;;;2.88;;
27539;SDS011;15906;52.046;4.724;2023-02-05T07:57:12;15.70;;;3.10;;
27539;SDS011;15906;52.046;4.724;2023-02-05T07:59:38;17.25;;;2.65;;
27539;SDS011;15906;52.046;4.724;2023-02-05T08:02:03;16.98;;;2.78;;
27539;SDS011;15906;52.046;4.724;2023-02-05T08:04:29;27.67;;;3.92;;
27539;SDS011;15906;52.046;4.724;2023-02-05T08:06:54;17.90;;;3.92;;
27539;SDS011;15906;52.046;4.724;2023-02-05T08:09:20;24.92;;;3.70;;
27539;SDS011;15906;52.046;4.724;2023-02-05T08:11:45;22.13;;;4.03;;
27539;SDS011;15906;52.046;4.724;2023-02-05T08:14:11;18.42;;;3.80;;
27539;SDS011;15906;52.046;4.724;2023-02-05T08:16:37;15.77;;;2.85;;
27539;SDS011;15906;52.046;4.724;2023-02-05T08:19:02;29.88;;;4.85;;
27539;SDS011;15906;52.046;4.724;2023-02-05T08:21:31;20.38;;;3.30;;
27539;SDS011;15906;52.046;4.724;2023-02-05T08:23:57;22.08;;;3.50;;
27539;SDS011;15906;52.046;4.724;2023-02-05T08:26:24;30.45;;;4.22;;
27539;SDS011;15906;52.046;4.724;2023-02-05T08:28:50;25.92;;;5.28;;
27539;SDS011;15906;52.046;4.724;2023-02-05T08:31:16;31.15;;;5.15;;
27539;SDS011;15906;52.046;4.724;2023-02-05T08:33:43;25.80;;;3.75;;
27539;SDS011;15906;52.046;4.724;2023-02-05T08:36:09;22.92;;;3.90;;
27539;SDS011;15906;52.046;4.724;2023-02-05T08:38:35;27.30;;;4.40;;
27539;SDS011;15906;52.046;4.724;2023-02-05T08:41:08;30.70;;;4.40;;
27539;SDS011;15906;52.046;4.724;2023-02-05T08:43:38;25.67;;;5.15;;
27539;SDS011;15906;52.046;4.724;2023-02-05T08:46:05;29.92;;;4.95;;
27539;SDS011;15906;52.046;4.724;2023-02-05T08:48:30;23.42;;;4.05;;
27539;SDS011;15906;52.046;4.724;2023-02-05T08:50:56;33.13;;;4.35;;
27539;SDS011;15906;52.046;4.724;2023-02-05T08:53:21;27.67;;;5.60;;
27539;SDS011;15906;52.046;4.724;2023-02-05T08:55:57;29.08;;;4.63;;
27539;SDS011;15906;52.046;4.724;2023-02-05T08:58:25;35.17;;;4.75;;
27539;SDS011;15906;52.046;4.724;2023-02-05T09:00:51;29.65;;;4.15;;
27539;SDS011;15906;52.046;4.724;2023-02-05T09:03:17;28.27;;;3.75;;
27539;SDS011;15906;52.046;4.724;2023-02-05T09:05:42;24.70;;;4.40;;
27539;SDS011;15906;52.046;4.724;2023-02-05T09:08:08;29.85;;;4.72;;
27539;SDS011;15906;52.046;4.724;2023-02-05T09:10:34;23.92;;;4.55;;
27539;SDS011;15906;52.046;4.724;2023-02-05T09:13:00;26.15;;;4.45;;
27539;SDS011;15906;52.046;4.724;2023-02-05T09:15:25;37.67;;;5.13;;
27539;SDS011;15906;52.046;4.724;2023-02-05T09:17:51;31.73;;;5.05;;
27539;SDS011;15906;52.046;4.724;2023-02-05T09:20:16;32.47;;;4.97;;
27539;SDS011;15906;52.046;4.724;2023-02-05T09:22:42;30.83;;;5.20;;
27539;SDS011;15906;52.046;4.724;2023-02-05T09:25:07;26.67;;;4.40;;
27539;SDS011;15906;52.046;4.724;2023-02-05T09:27:33;24.63;;;3.97;;
27539;SDS011;15906;52.046;4.724;2023-02-05T09:29:59;42.90;;;5.55;;
27539;SDS011;15906;52.046;4.724;2023-02-05T09:32:24;22.15;;;4.95;;
27539;SDS011;15906;52.046;4.724;2023-02-05T09:34:50;30.77;;;4.22;;
27539;SDS011;15906;52.046;4.724;2023-02-05T09:37:16;31.60;;;4.10;;
27539;SDS011;15906;52.046;4.724;2023-02-05T09:39:42;19.75;;;3.78;;
27539;SDS011;15906;52.046;4.724;2023-02-05T09:47:15;23.45;;;4.30;;
27539;SDS011;15906;52.046;4.724;2023-02-05T09:52:50;33.00;;;4.53;;
27539;SDS011;15906;52.046;4.724;2023-02-05T09:55:19;21.13;;;4.28;;
27539;SDS011;15906;52.046;4.724;2023-02-05T09:57:48;22.45;;;3.70;;
27539;SDS011;15906;52.046;4.724;2023-02-05T10:00:17;30.55;;;5.53;;
27539;SDS011;15906;52.046;4.724;2023-02-05T10:03:07;25.83;;;4.47;;
27539;SDS011;15906;52.046;4.724;2023-02-05T10:08:29;28.15;;;4.55;;
27539;SDS011;15906;52.046;4.724;2023-02-05T10:11:26;24.33;;;3.70;;
27539;SDS011;15906;52.046;4.724;2023-02-05T10:14:15;26.75;;;4.68;;
27539;SDS011;15906;52.046;4.724;2023-02-05T10:17:19;25.67;;;4.13;;
27539;SDS011;15906;52.046;4.724;2023-02-05T10:19:56;18.02;;;3.65;;
27539;SDS011;15906;52.046;4.724;2023-02-05T10:22:45;22.45;;;3.50;;
27539;SDS011;15906;52.046;4.724;2023-02-05T10:28:41;28.88;;;5.22;;
27539;SDS011;15906;52.046;4.724;2023-02-05T10:34:18;19.30;;;4.47;;
27539;SDS011;15906;52.046;4.724;2023-02-05T10:37:11;29.38;;;5.25;;
27539;SDS011;15906;52.046;4.724;2023-02-05T10:39:40;26.00;;;6.25;;
27539;SDS011;15906;52.046;4.724;2023-02-05T10:44:44;28.58;;;5.38;;
27539;SDS011;15906;52.046;4.724;2023-02-05T10:47:14;23.80;;;5.00;;
27539;SDS011;15906;52.046;4.724;2023-02-05T10:52:15;23.48;;;4.70;;
27539;SDS011;15906;52.046;4.724;2023-02-05T10:54:41;30.55;;;6.18;;
27539;SDS011;15906;52.046;4.724;2023-02-05T10:57:17;29.35;;;4.22;;
27539;SDS011;15906;52.046;4.724;2023-02-05T10:59:52;30.30;;;5.00;;
27539;SDS011;15906;52.046;4.724;2023-02-05T11:02:40;13.85;;;3.72;;
27539;SDS011;15906;52.046;4.724;2023-02-05T11:05:23;28.50;;;4.38;;
27539;SDS011;15906;52.046;4.724;2023-02-05T11:08:02;23.70;;;4.57;;
27539;SDS011;15906;52.046;4.724;2023-02-05T11:10:29;30.08;;;4.38;;
27539;SDS011;15906;52.046;4.724;2023-02-05T11:12:59;30.65;;;4.63;;
27539;SDS011;15906;52.046;4.724;2023-02-05T11:15:58;29.42;;;4.32;;
27539;SDS011;15906;52.046;4.724;2023-02-05T11:18:28;18.27;;;3.35;;
27539;SDS011;15906;52.046;4.724;2023-02-05T11:20:57;24.90;;;4.20;;
27539;SDS011;15906;52.046;4.724;2023-02-05T11:23:26;18.50;;;3.67;;
27539;SDS011;15906;52.046;4.724;2023-02-05T11:25:58;22.23;;;3.50;;
27539;SDS011;15906;52.046;4.724;2023-02-05T11:28:26;24.55;;;4.00;;
27539;SDS011;15906;52.046;4.724;2023-02-05T11:30:53;25.73;;;4.60;;
27539;SDS011;15906;52.046;4.724;2023-02-05T11:35:55;15.38;;;3.17;;
27539;SDS011;15906;52.046;4.724;2023-02-05T11:40:54;16.65;;;3.05;;
27539;SDS011;15906;52.046;4.724;2023-02-05T11:43:26;16.65;;;3.53;;
27539;SDS011;15906;52.046;4.724;2023-02-05T11:45:56;21.52;;;3.25;;
27539;SDS011;15906;52.046;4.724;2023-02-05T11:48:29;21.90;;;3.50;;
27539;SDS011;15906;52.046;4.724;2023-02-05T11:51:05;29.45;;;3.63;;
27539;SDS011;15906;52.046;4.724;2023-02-05T11:53:33;21.58;;;3.58;;
27539;SDS011;15906;52.046;4.724;2023-02-05T11:56:02;19.73;;;3.85;;
27539;SDS011;15906;52.046;4.724;2023-02-05T11:58:33;23.45;;;4.05;;
27539;SDS011;15906;52.046;4.724;2023-02-05T12:01:01;23.75;;;3.90;;
27539;SDS011;15906;52.046;4.724;2023-02-05T12:03:30;17.35;;;3.30;;
27539;SDS011;15906;52.046;4.724;2023-02-05T12:08:52;13.75;;;3.20;;
27539;SDS011;15906;52.046;4.724;2023-02-05T12:22:45;21.70;;;4.30;;
27539;SDS011;15906;52.046;4.724;2023-02-05T12:26:02;14.10;;;3.05;;
27539;SDS011;15906;52.046;4.724;2023-02-05T12:36:26;18.77;;;4.10;;
27539;SDS011;15906;52.046;4.724;2023-02-05T12:42:10;19.23;;;4.38;;
27539;SDS011;15906;52.046;4.724;2023-02-05T12:45:15;15.65;;;2.05;;
27539;SDS011;15906;52.046;4.724;2023-02-05T12:47:59;17.75;;;3.00;;
27539;SDS011;15906;52.046;4.724;2023-02-05T12:53:42;16.00;;;3.08;;
27539;SDS011;15906;52.046;4.724;2023-02-05T12:56:30;15.95;;;3.45;;
27539;SDS011;15906;52.046;4.724;2023-02-05T12:59:13;13.68;;;2.60;;
27539;SDS011;15906;52.046;4.724;2023-02-05T13:04:25;9.68;;;2.17;;
27539;SDS011;15906;52.046;4.724;2023-02-05T13:12:30;18.90;;;3.30;;
27539;SDS011;15906;52.046;4.724;2023-02-05T13:15:18;24.88;;;2.97;;
27539;SDS011;15906;52.046;4.724;2023-02-05T13:20:52;17.33;;;2.92;;
27539;SDS011;15906;52.046;4.724;2023-02-05T13:23:42;22.20;;;2.85;;
27539;SDS011;15906;52.046;4.724;2023-02-05T13:26:29;16.23;;;2.47;;
27539;SDS011;15906;52.046;4.724;2023-02-05T13:29:17;19.20;;;2.90;;
27539;SDS011;15906;52.046;4.724;2023-02-05T13:31:46;17.65;;;3.38;;
27539;SDS011;15906;52.046;4.724;2023-02-05T13:34:16;14.52;;;3.03;;
27539;SDS011;15906;52.046;4.724;2023-02-05T13:50:33;18.65;;;2.88;;
27539;SDS011;15906;52.046;4.724;2023-02-05T13:59:18;20.77;;;2.80;;
27539;SDS011;15906;52.046;4.724;2023-02-05T14:02:00;20.55;;;4.70;;
27539;SDS011;15906;52.046;4.724;2023-02-05T14:04:31;17.65;;;3.40;;
27539;SDS011;15906;52.046;4.724;2023-02-05T14:09:53;21.25;;;3.25;;
27539;SDS011;15906;52.046;4.724;2023-02-05T14:12:27;17.10;;;2.78;;
27539;SDS011;15906;52.046;4.724;2023-02-05T14:22:50;20.40;;;3.80;;
27539;SDS011;15906;52.046;4.724;2023-02-05T14:28:02;24.73;;;3.30;;
27539;SDS011;15906;52.046;4.724;2023-02-05T14:32:54;19.02;;;4.20;;
27539;SDS011;15906;52.046;4.724;2023-02-05T14:35:29;27.70;;;4.72;;
27539;SDS011;15906;52.046;4.724;2023-02-05T14:37:57;23.17;;;3.65;;
27539;SDS011;15906;52.046;4.724;2023-02-05T14:40:32;21.80;;;3.38;;
27539;SDS011;15906;52.046;4.724;2023-02-05T14:43:13;18.92;;;3.25;;
27539;SDS011;15906;52.046;4.724;2023-02-05T14:46:06;31.27;;;6.20;;
27539;SDS011;15906;52.046;4.724;2023-02-05T14:48:47;26.50;;;4.57;;
27539;SDS011;15906;52.046;4.724;2023-02-05T14:51:21;20.52;;;3.78;;
27539;SDS011;15906;52.046;4.724;2023-02-05T14:53:59;18.05;;;3.95;;
27539;SDS011;15906;52.046;4.724;2023-02-05T14:56:29;17.60;;;3.63;;
27539;SDS011;15906;52.046;4.724;2023-02-05T14:59:02;21.75;;;3.97;;
27539;SDS011;15906;52.046;4.724;2023-02-05T15:01:40;21.95;;;3.35;;
27539;SDS011;15906;52.046;4.724;2023-02-05T15:04:13;26.02;;;4.07;;
27539;SDS011;15906;52.046;4.724;2023-02-05T15:07:05;27.10;;;4.45;;
27539;SDS011;15906;52.046;4.724;2023-02-05T15:09:37;31.02;;;3.70;;
27539;SDS011;15906;52.046;4.724;2023-02-05T15:15:17;19.25;;;4.72;;
27539;SDS011;15906;52.046;4.724;2023-02-05T15:20:37;28.10;;;4.35;;
27539;SDS011;15906;52.046;4.724;2023-02-05T15:23:14;26.35;;;4.55;;
27539;SDS011;15906;52.046;4.724;2023-02-05T15:25:50;19.42;;;4.78;;
27539;SDS011;15906;52.046;4.724;2023-02-05T15:28:20;23.58;;;4.07;;
27539;SDS011;15906;52.046;4.724;2023-02-05T15:31:05;25.95;;;4.55;;
27539;SDS011;15906;52.046;4.724;2023-02-05T15:33:56;39.08;;;4.68;;
27539;SDS011;15906;52.046;4.724;2023-02-05T15:36:33;19.80;;;4.35;;
27539;SDS011;15906;52.046;4.724;2023-02-05T15:39:04;23.17;;;4.25;;
27539;SDS011;15906;52.046;4.724;2023-02-05T15:41:49;22.08;;;4.55;;
27539;SDS011;15906;52.046;4.724;2023-02-05T15:44:26;30.52;;;4.80;;
27539;SDS011;15906;52.046;4.724;2023-02-05T15:46:54;22.23;;;3.90;;
27539;SDS011;15906;52.046;4.724;2023-02-05T15:49:24;27.10;;;4.25;;
27539;SDS011;15906;52.046;4.724;2023-02-05T15:52:02;29.92;;;4.53;;
27539;SDS011;15906;52.046;4.724;2023-02-05T15:54:29;23.02;;;3.83;;
27539;SDS011;15906;52.046;4.724;2023-02-05T15:56:58;32.63;;;4.18;;
27539;SDS011;15906;52.046;4.724;2023-02-05T15:59:24;24.77;;;4.68;;
27539;SDS011;15906;52.046;4.724;2023-02-05T16:02:00;21.85;;;5.15;;
27539;SDS011;15906;52.046;4.724;2023-02-05T16:06:56;29.75;;;4.82;;
27539;SDS011;15906;52.046;4.724;2023-02-05T16:09:24;29.00;;;4.10;;
27539;SDS011;15906;52.046;4.724;2023-02-05T16:11:51;24.88;;;4.22;;
27539;SDS011;15906;52.046;4.724;2023-02-05T16:14:19;22.38;;;5.03;;
27539;SDS011;15906;52.046;4.724;2023-02-05T16:16:55;24.98;;;4.07;;
27539;SDS011;15906;52.046;4.724;2023-02-05T16:19:32;32.00;;;4.47;;
27539;SDS011;15906;52.046;4.724;2023-02-05T16:25:00;20.30;;;3.58;;
27539;SDS011;15906;52.046;4.724;2023-02-05T16:27:41;33.50;;;5.32;;
27539;SDS011;15906;52.046;4.724;2023-02-05T16:30:53;38.15;;;5.45;;
27539;SDS011;15906;52.046;4.724;2023-02-05T16:33:16;22.45;;;4.18;;
27539;SDS011;15906;52.046;4.724;2023-02-05T16:35:57;28.90;;;4.85;;
27539;SDS011;15906;52.046;4.724;2023-02-05T16:38:26;23.98;;;4.50;;
27539;SDS011;15906;52.046;4.724;2023-02-05T16:40:53;19.17;;;3.75;;
27539;SDS011;15906;52.046;4.724;2023-02-05T16:46:35;26.55;;;5.30;;
27539;SDS011;15906;52.046;4.724;2023-02-05T16:48:38;29.27;;;5.03;;
27539;SDS011;15906;52.046;4.724;2023-02-05T16:51:29;25.15;;;5.15;;
27539;SDS011;15906;52.046;4.724;2023-02-05T16:56:37;29.85;;;5.25;;
27539;SDS011;15906;52.046;4.724;2023-02-05T16:59:14;25.75;;;5.00;;
27539;SDS011;15906;52.046;4.724;2023-02-05T17:01:47;26.35;;;4.57;;
27539;SDS011;15906;52.046;4.724;2023-02-05T17:04:20;27.00;;;4.63;;
27539;SDS011;15906;52.046;4.724;2023-02-05T17:06:51;28.13;;;4.63;;
27539;SDS011;15906;52.046;4.724;2023-02-05T17:14:52;31.13;;;4.40;;
27539;SDS011;15906;52.046;4.724;2023-02-05T17:17:18;30.08;;;5.28;;
27539;SDS011;15906;52.046;4.724;2023-02-05T17:20:00;34.50;;;6.45;;
27539;SDS011;15906;52.046;4.724;2023-02-05T17:22:26;25.90;;;5.82;;
27539;SDS011;15906;52.046;4.724;2023-02-05T17:24:52;33.55;;;5.07;;
27539;SDS011;15906;52.046;4.724;2023-02-05T17:30:17;31.83;;;5.50;;
27539;SDS011;15906;52.046;4.724;2023-02-05T17:32:43;32.38;;;5.68;;
27539;SDS011;15906;52.046;4.724;2023-02-05T17:35:17;31.92;;;5.28;;
27539;SDS011;15906;52.046;4.724;2023-02-05T17:37:49;30.02;;;5.55;;
27539;SDS011;15906;52.046;4.724;2023-02-05T17:40:15;26.83;;;4.75;;